Aérodrome :
LOGIN :

S'inscrire | Disclaimer

   EN    FR    IT 

 










Légende :    VFR   VFR Marginal   IFR   IFR Intensif   IFR Très Intensif
Visi : 
Plafond : 
>= 8 km
>= 3000ft
5 à 8 km
1000 à 3000 ft
1500m à 5 km
500 à 1000 ft
800 à 1500m
200 à 500 ft
< 800m
< 200 ft
Symboles :   Orages  Brouillard  Fortes neiges  Fortes précipitations  Vent > 20 kt
SIGMETs :   Divers  Orages  Givrage  Turbulence  Onde Orograph.  Cendres Volcan.







- Altitude de l'aérodrome : 1197 ft
- Code IATA : SPM


ETAD - Spangdahlem Ab

DERNIER METAR :
  • 230156Z AUTO 00000KT 9999 -RA FEW085 16/12 A2995 RMK AO2 RAB48 SLP119 P0000 T01590121 $

METARs EXPIRÉS :
  • 230148Z AUTO 00000KT 9999 -RA FEW085 16/12 A2995 RMK AO2 RAB48 SLP119 $
  • 230056Z AUTO 21004KT 9999 CLR 16/12 A2993 RMK AO2 SLP112 T01580116 $
  • 222356Z AUTO 27004KT 9999 SCT110 16/12 A2994 RMK AO2 SLP116 T01620116 10217 20160 50001 $

TAF AMD TAF ETAD
Valide du 22 à 18h jusqu'au 23 à 17h UTC


221808Z 2218/2317 24012KT 9999 SCT060 QNH2992INS
BECMG 2305/2306 23012KT 8000 -SHRA VCTS BKN030CB QNH2995INS
BECMG 2308/2309 27009KT 9999 NSW BKN030 QNH3000INS TX24/2315Z TN15/2303Z LAST NO AMDS AFT 2218 NEXT 2303
Pas de NOTAMs connus pour ce terrain.



MET'MAP, la Météo Aéronautique d'un coup d'oeil ! - Copyright ORBIFLY Décembre 2007 - Disclaimer

ORBIFLY MET'MAP TEAM :

Programmation & Développement : Alexandra Zaïnal
Conception & Développement : Baudouin d'Aumeries
Co-Programmation & Développement : Marc-Olivier Méhu
Soutien technique & logistique : Manuel Goepfert

Contact : metmap@orbifly.com




SOURCES & CREDITS :

   NOAA